地図

経路データ

SID SEASON NUMBER BASIN SUBBASIN NAME ISO_TIME NATURE LAT LON WMO_WIND WMO_PRES WMO_AGENCY TRACK_TYPE DIST2LAND LANDFALL IFLAG USA_AGENCY USA_ATCF_ID USA_LAT USA_LON USA_RECORD USA_STATUS USA_WIND USA_PRES USA_SSHS USA_R34_NE USA_R34_SE USA_R34_SW USA_R34_NW USA_R50_NE USA_R50_SE USA_R50_SW USA_R50_NW USA_R64_NE USA_R64_SE USA_R64_SW USA_R64_NW USA_POCI USA_ROCI USA_RMW USA_EYE TOKYO_LAT TOKYO_LON TOKYO_GRADE TOKYO_WIND TOKYO_PRES TOKYO_R50_DIR TOKYO_R50_LONG TOKYO_R50_SHORT TOKYO_R30_DIR TOKYO_R30_LONG TOKYO_R30_SHORT TOKYO_LAND CMA_LAT CMA_LON CMA_CAT CMA_WIND CMA_PRES HKO_LAT HKO_LON HKO_CAT HKO_WIND HKO_PRES NEWDELHI_LAT NEWDELHI_LON NEWDELHI_GRADE NEWDELHI_WIND NEWDELHI_PRES NEWDELHI_CI NEWDELHI_DP NEWDELHI_POCI REUNION_LAT REUNION_LON REUNION_TYPE REUNION_WIND REUNION_PRES REUNION_TNUM REUNION_CI REUNION_RMW REUNION_R34_NE REUNION_R34_SE REUNION_R34_SW REUNION_R34_NW REUNION_R50_NE REUNION_R50_SE REUNION_R50_SW REUNION_R50_NW REUNION_R64_NE REUNION_R64_SE REUNION_R64_SW REUNION_R64_NW BOM_LAT BOM_LON BOM_TYPE BOM_WIND BOM_PRES BOM_TNUM BOM_CI BOM_RMW BOM_R34_NE BOM_R34_SE BOM_R34_SW BOM_R34_NW BOM_R50_NE BOM_R50_SE BOM_R50_SW BOM_R50_NW BOM_R64_NE BOM_R64_SE BOM_R64_SW BOM_R64_NW BOM_ROCI BOM_POCI BOM_EYE BOM_POS_METHOD BOM_PRES_METHOD NADI_LAT NADI_LON NADI_CAT NADI_WIND NADI_PRES WELLINGTON_LAT WELLINGTON_LON WELLINGTON_WIND WELLINGTON_PRES DS824_LAT DS824_LON DS824_STAGE DS824_WIND DS824_PRES TD9636_LAT TD9636_LON TD9636_STAGE TD9636_WIND TD9636_PRES TD9635_LAT TD9635_LON TD9635_WIND TD9635_PRES TD9635_ROCI NEUMANN_LAT NEUMANN_LON NEUMANN_CLASS NEUMANN_WIND NEUMANN_PRES MLC_LAT MLC_LON MLC_CLASS MLC_WIND MLC_PRES USA_GUST BOM_GUST BOM_GUST_PER REUNION_GUST REUNION_GUST_PER USA_SEAHGT USA_SEARAD_NE USA_SEARAD_SE USA_SEARAD_SW USA_SEARAD_NW STORM_SPEED STORM_DIR
1962263N17253 1962 82 EP MM CLAUDIA 1962-09-20 00:00:00 TS 17.0000 -107.300 45 hurdat_epa main 361 360 O________OO___ hurdat_epa EP071962 17.0000 -107.300 TS 45 0 17.0000 -107.300 TC 45 17.0000 -107.300 2 13 316
1962263N17253 1962 82 EP MM CLAUDIA 1962-09-20 03:00:00 TS 17.4565 -107.759 main 360 360 P________PP___ EP071962 17.4602 -107.764 TS 45 0 17.4602 -107.764 TC 45 17.4416 -107.738 2 12 316
1962263N17253 1962 82 EP MM CLAUDIA 1962-09-20 06:00:00 TS 17.8952 -108.192 45 hurdat_epa main 365 362 O________OP___ hurdat_epa EP071962 17.9000 -108.200 TS 45 0 17.9000 -108.200 TC 45 17.8762 -108.162 2 12 318
1962263N17253 1962 82 EP MM CLAUDIA 1962-09-20 09:00:00 TS 18.3054 -108.575 main 377 371 P________PP___ EP071962 18.3074 -108.580 TS 45 0 18.3074 -108.580 TC 45 18.2976 -108.555 2 11 320
1962263N17253 1962 82 EP MM CLAUDIA 1962-09-20 12:00:00 TS 18.7000 -108.900 45 hurdat_epa main 385 379 O________OO___ hurdat_epa EP071962 18.7000 -108.900 TS 45 0 18.7000 -108.900 TC 45 18.7000 -108.900 2 10 325
1962263N17253 1962 82 EP MM CLAUDIA 1962-09-20 15:00:00 TS 19.0964 -109.169 main 394 382 P________PP___ EP071962 19.0999 -109.165 TS 45 0 19.0999 -109.165 TC 45 19.0823 -109.186 2 9 329
1962263N17253 1962 82 EP MM CLAUDIA 1962-09-20 18:00:00 TS 19.4924 -109.406 45 hurdat_epa main 382 336 O________OP___ hurdat_epa EP071962 19.5000 -109.400 TS 45 0 19.5000 -109.400 TC 45 19.4618 -109.432 2 9 330
1962263N17253 1962 82 EP MM CLAUDIA 1962-09-20 21:00:00 TS 19.8740 -109.647 main 336 290 P________PP___ EP071962 19.8774 -109.643 TS 45 0 19.8774 -109.643 TC 45 19.8605 -109.661 2 9 330
1962263N17253 1962 82 EP MM CLAUDIA 1962-09-21 00:00:00 TS 20.3000 -109.900 45 hurdat_epa main 290 235 O________OO___ hurdat_epa EP071962 20.3000 -109.900 TS 45 0 20.3000 -109.900 TC 45 20.3000 -109.900 2 11 332
1962263N17253 1962 82 EP MM CLAUDIA 1962-09-21 03:00:00 TS 20.8282 -110.191 main 235 175 P________PP___ EP071962 20.8275 -110.193 TS 45 0 20.8275 -110.193 TC 45 20.8312 -110.185 2 12 333
1962263N17253 1962 82 EP MM CLAUDIA 1962-09-21 06:00:00 TS 21.4000 -110.497 45 hurdat_epa main 175 132 O________OP___ hurdat_epa EP071962 21.4000 -110.500 TS 45 0 21.4000 -110.500 TC 45 21.4000 -110.485 2 13 334
1962263N17253 1962 82 EP MM CLAUDIA 1962-09-21 09:00:00 TS 21.9657 -110.798 main 129 116 P________PP___ EP071962 21.9649 -110.800 TS 45 0 21.9649 -110.800 TC 45 21.9687 -110.792 2 12 333
1962263N17253 1962 82 EP MM CLAUDIA 1962-09-21 12:00:00 TS 22.5000 -111.100 45 hurdat_epa main 121 113 O________OO___ hurdat_epa EP071962 22.5000 -111.100 TS 45 0 22.5000 -111.100 TC 45 22.5000 -111.100 2 12 331
1962263N17253 1962 82 EP MM CLAUDIA 1962-09-21 15:00:00 TS 22.9766 -111.402 main 113 99 P________PP___ EP071962 22.9799 -111.400 TS 45 0 22.9799 -111.400 TC 45 22.9633 -111.409 2 11 328
1962263N17253 1962 82 EP MM CLAUDIA 1962-09-21 18:00:00 TS 23.3965 -111.703 45 hurdat_epa main 99 78 O________OP___ hurdat_epa EP071962 23.4000 -111.700 TS 45 0 23.4000 -111.700 TC 45 23.3823 -111.715 2 10 325
1962263N17253 1962 82 EP MM CLAUDIA 1962-09-21 21:00:00 TS 23.7700 -112.009 main 78 67 P________PP___ EP071962 23.7725 -112.008 TS 45 0 23.7725 -112.008 TC 45 23.7602 -112.015 2 9 322
1962263N17253 1962 82 EP MM CLAUDIA 1962-09-22 00:00:00 TS 24.1000 -112.300 45 hurdat_epa main 67 52 O________OO___ hurdat_epa EP071962 24.1000 -112.300 TS 45 0 24.1000 -112.300 TC 45 24.1000 -112.300 2 8 322
1962263N17253 1962 82 EP MM CLAUDIA 1962-09-22 03:00:00 TS 24.4133 -112.562 main 60 52 P________PP___ EP071962 24.4149 -112.558 TS 45 0 24.4149 -112.558 TC 45 24.4067 -112.577 2 8 322
1962263N17253 1962 82 EP MM CLAUDIA 1962-09-22 06:00:00 TS 24.6960 -112.808 45 hurdat_epa main 61 61 O________OP___ hurdat_epa EP071962 24.7000 -112.800 TS 45 0 24.7000 -112.800 TC 45 24.6798 -112.838 2 7 320
1962263N17253 1962 82 EP MM CLAUDIA 1962-09-22 09:00:00 TS 24.9476 -113.062 main 91 91 P________PP___ EP071962 24.9500 -113.058 TS 45 0 24.9500 -113.058 TC 45 24.9380 -113.080 2 7 319
1962263N17253 1962 82 EP MM CLAUDIA 1962-09-22 12:00:00 TS 25.2000 -113.300 45 hurdat_epa main 119 119 O________OO___ hurdat_epa EP071962 25.2000 -113.300 TS 45 0 25.2000 -113.300 TC 45 25.2000 -113.300 2 7 323
1962263N17253 1962 82 EP MM CLAUDIA 1962-09-22 15:00:00 TS 25.4958 -113.513 main 119 101 P________PP___ EP071962 25.4925 -113.515 TS 45 0 25.4925 -113.515 TC 45 25.5089 -113.505 2 7 329
1962263N17253 1962 82 EP MM CLAUDIA 1962-09-22 18:00:00 TS 25.8045 -113.698 45 hurdat_epa main 101 69 O________OP___ hurdat_epa EP071962 25.8000 -113.700 TS 45 0 25.8000 -113.700 TC 45 25.8223 -113.688 2 7 334
1962263N17253 1962 82 EP MM CLAUDIA 1962-09-22 21:00:00 TS 26.1169 -113.856 main 73 51 P________PP___ EP071962 26.1150 -113.858 TS 45 0 26.1150 -113.858 TC 45 26.1246 -113.852 2 7 335
1962263N17253 1962 82 EP MM CLAUDIA 1962-09-23 00:00:00 TS 26.4000 -114.000 45 hurdat_epa main 51 44 O________OO___ hurdat_epa EP071962 26.4000 -114.000 TS 45 0 26.4000 -114.000 TC 45 26.4000 -114.000 2 6 332
1962263N17253 1962 82 EP MM CLAUDIA 1962-09-23 03:00:00 TS 26.6169 -114.157 main 48 34 P________PP___ EP071962 26.6150 -114.158 TS 45 0 26.6150 -114.158 TC 45 26.6246 -114.156 2 5 326
1962263N17253 1962 82 EP MM CLAUDIA 1962-09-23 06:00:00 TS 26.8045 -114.299 45 hurdat_epa main 34 22 O________OP___ hurdat_epa EP071962 26.8000 -114.300 TS 45 0 26.8000 -114.300 TC 45 26.8225 -114.295 2 4 329
1962263N17253 1962 82 EP MM CLAUDIA 1962-09-23 09:00:00 TS 27.0018 -114.414 main 22 9 P________PP___ EP071962 27.0000 -114.415 TS 45 0 27.0000 -114.415 TC 45 27.0090 -114.412 2 4 336
1962263N17253 1962 82 EP MM CLAUDIA 1962-09-23 12:00:00 TS 27.2000 -114.500 45 hurdat_epa main 9 9 O________OO___ hurdat_epa EP071962 27.2000 -114.500 TS 45 0 27.2000 -114.500 TC 45 27.2000 -114.500 2 4 342
1962263N17253 1962 82 EP MM CLAUDIA 1962-09-23 15:00:00 TS 27.3955 -114.563 main 9 0 P________PP___ EP071962 27.3925 -114.565 TS 45 0 27.3925 -114.565 TC 45 27.4075 -114.556 2 4 347
1962263N17253 1962 82 EP MM CLAUDIA 1962-09-23 18:00:00 TS 27.6047 -114.598 45 hurdat_epa main 0 0 O________OP___ hurdat_epa EP071962 27.6000 -114.600 TS 45 0 27.6000 -114.600 TC 45 27.6300 -114.585 2 4 357
1962263N17253 1962 82 EP MM CLAUDIA 1962-09-23 21:00:00 TS 27.8247 -114.593 main 0 0 P________PP___ EP071962 27.8200 -114.593 TS 45 0 27.8200 -114.593 TC 45 27.8625 -114.597 2 5 357
1962263N17253 1962 82 EP MM CLAUDIA 1962-09-24 00:00:00 TS 28.1000 -114.600 45 hurdat_epa main 33 33 O________OO___ hurdat_epa EP071962 28.1000 -114.600 TS 45 0 28.1000 -114.600 TC 45 28.1000 -114.600 2 6 353
1962263N17253 1962 82 EP MM CLAUDIA 1962-09-24 03:00:00 TS 28.4550 -114.685 main 51 29 P________P____ EP071962 28.4550 -114.685 TS 45 0 28.4550 -114.685 TC 45 2 8 347
1962263N17253 1962 82 EP MM CLAUDIA 1962-09-24 06:00:00 MX 28.9000 -114.800 45 hurdat_epa main 29 0 O________O____ hurdat_epa EP071962 28.9000 -114.800 TS 45 0 28.9000 -114.800 45 2 10 349
1962263N17253 1962 82 EP MM CLAUDIA 1962-09-24 09:00:00 MX 29.4275 -114.905 main 0 0 P________P____ EP071962 29.4275 -114.905 TS 45 0 29.4275 -114.905 45 2 11 351
1962263N17253 1962 82 EP MM CLAUDIA 1962-09-24 12:00:00 MX 30.0000 -115.000 45 hurdat_epa main 0 O________O____ hurdat_epa EP071962 30.0000 -115.000 TS 45 0 30.0000 -115.000 45 12 353

IBTrACS Databaseについて

本データベースは、米国NOAAが公開する1842年以降の世界の熱帯低気圧のベストトラックデータアーカイブInternational Best Track Archive for Climate Stewardship (IBTrACS)を、ウェブで閲覧しやすい形式に変換したものです。

最終更新日:2021-10-25